createdAt,value
2022-09-18T00:00:45.270Z,98356.34
2022-09-18T00:02:47.028Z,98356.09
2022-09-18T00:04:48.559Z,98353.59
2022-09-18T00:06:53.108Z,98351.97
2022-09-18T00:08:59.294Z,98359.38
2022-09-18T00:11:09.557Z,98362.13
2022-09-18T00:13:11.684Z,98366.22
2022-09-18T00:15:13.191Z,98364.31
2022-09-18T00:17:15.016Z,98363.50
2022-09-18T00:19:20.435Z,98362.13
2022-09-18T00:21:24.793Z,98368.69
2022-09-18T00:23:26.356Z,98360.47
2022-09-18T00:25:28.106Z,98367.88
2022-09-18T00:27:31.668Z,98361.59
2022-09-18T00:29:33.147Z,98363.50
2022-09-18T00:31:36.462Z,98361.84
2022-09-18T00:33:40.024Z,98357.47
2022-09-18T00:35:43.787Z,98366.78
2022-09-18T00:37:51.319Z,98370.91
2022-09-18T00:39:52.914Z,98370.06
2022-09-18T00:41:54.549Z,98370.06
2022-09-18T00:44:44.497Z,98368.16
2022-09-18T00:46:48.980Z,98366.50
2022-09-18T00:49:16.769Z,98359.97
2022-09-18T00:51:19.111Z,98359.66
2022-09-18T00:53:20.775Z,98358.88
2022-09-18T00:55:35.519Z,98357.50
2022-09-18T00:57:41.608Z,98364.59
2022-09-18T00:59:46.498Z,98355.31
2022-09-18T01:01:48.246Z,98356.13
2022-09-18T01:03:49.689Z,98361.63
2022-09-18T01:06:18.680Z,98364.91
2022-09-18T01:08:59.897Z,98358.31
2022-09-18T01:11:10.042Z,98359.13
2022-09-18T01:13:23.041Z,98360.78
2022-09-18T01:15:52.751Z,98359.13
2022-09-18T01:18:26.093Z,98359.97
2022-09-18T01:20:40.592Z,98364.59
2022-09-18T01:23:14.072Z,98361.03
2022-09-18T01:25:36.804Z,98355.31
2022-09-18T01:27:50.799Z,98357.22
2022-09-18T01:30:02.638Z,98358.03
2022-09-18T01:32:28.129Z,98352.28
2022-09-18T01:34:39.988Z,98359.41
2022-09-18T01:36:49.202Z,98364.06
2022-09-18T01:39:03.360Z,98361.03
2022-09-18T01:41:14.591Z,98367.09
2022-09-18T01:43:19.382Z,98372.00
2022-09-18T01:45:34.062Z,98367.63
2022-09-18T01:47:44.769Z,98372.81
2022-09-18T01:49:48.653Z,98369.53
2022-09-18T01:51:58.584Z,98365.41
2022-09-18T01:54:04.862Z,98363.50
2022-09-18T01:56:14.125Z,98367.59
2022-09-18T01:58:19.018Z,98369.22
2022-09-18T02:00:22.985Z,98367.84
2022-09-18T02:02:43.678Z,98370.03
2022-09-18T02:04:52.167Z,98365.09
2022-09-18T02:07:14.610Z,98364.03
2022-09-18T02:09:16.355Z,98359.06
2022-09-18T02:11:22.737Z,98361.56
2022-09-18T02:13:30.179Z,98359.34
2022-09-18T02:15:36.393Z,98359.06
2022-09-18T02:18:01.293Z,98358.50
2022-09-18T02:20:25.526Z,98358.81
2022-09-18T02:22:30.622Z,98362.91
2022-09-18T02:24:36.735Z,98355.22
2022-09-18T02:26:41.221Z,98359.31
2022-09-18T02:28:45.193Z,98360.16
2022-09-18T02:30:48.245Z,98349.97
2022-09-18T02:32:56.514Z,98356.28
2022-09-18T02:34:58.308Z,98350.53
2022-09-18T02:37:18.673Z,98355.47
2022-09-18T02:39:37.976Z,98349.16
2022-09-18T02:42:03.996Z,98355.19
2022-09-18T02:44:30.187Z,98359.00
2022-09-18T02:46:42.593Z,98356.00
2022-09-18T02:48:50.283Z,98358.75
2022-09-18T02:51:15.010Z,98350.22
2022-09-18T02:53:28.879Z,98364.47
2022-09-18T02:55:43.852Z,98350.78
2022-09-18T02:58:03.804Z,98353.50
2022-09-18T03:00:08.417Z,98356.81
2022-09-18T03:02:10.971Z,98361.47
2022-09-18T03:04:19.392Z,98361.19
2022-09-18T03:06:42.131Z,98362.31
2022-09-18T03:08:43.780Z,98364.50
2022-09-18T03:10:45.370Z,98361.75
2022-09-18T03:12:47.100Z,98351.34
2022-09-18T03:14:50.500Z,98359.28
2022-09-18T03:16:52.561Z,98362.03
2022-09-18T03:18:54.862Z,98359.00
2022-09-18T03:20:57.428Z,98361.47
2022-09-18T03:22:59.364Z,98369.69
2022-09-18T03:25:00.927Z,98365.84
2022-09-18T03:27:03.017Z,98365.84
2022-09-18T03:29:12.104Z,98364.75
2022-09-18T03:31:16.040Z,98359.78
2022-09-18T03:33:19.260Z,98358.97
2022-09-18T03:35:20.928Z,98356.78
2022-09-18T03:37:22.889Z,98357.88
2022-09-18T03:39:24.631Z,98361.16
2022-09-18T03:41:28.165Z,98357.31
2022-09-18T03:43:31.244Z,98360.06
2022-09-18T03:45:33.042Z,98366.09
2022-09-18T03:47:36.782Z,98365.25
2022-09-18T03:49:38.651Z,98358.94
2022-09-18T03:51:41.673Z,98356.78
2022-09-18T03:53:43.496Z,98359.50
2022-09-18T03:56:04.609Z,98361.13
2022-09-18T03:58:24.954Z,98361.13
2022-09-18T04:01:05.299Z,98354.81
2022-09-18T04:03:18.849Z,98359.50
2022-09-18T04:05:23.211Z,98355.66
2022-09-18T04:07:50.859Z,98358.91
2022-09-18T04:10:32.324Z,98358.91
2022-09-18T04:12:34.107Z,98366.88
2022-09-18T04:14:44.156Z,98366.88
2022-09-18T04:16:45.835Z,98355.09
2022-09-18T04:18:47.430Z,98357.53
2022-09-18T04:20:49.201Z,98353.72
2022-09-18T04:22:50.984Z,98350.97
2022-09-18T04:24:52.825Z,98364.38
2022-09-18T04:26:55.053Z,98358.91
2022-09-18T04:28:59.727Z,98363.28
2022-09-18T04:31:01.423Z,98357.81
2022-09-18T04:33:05.260Z,98357.50
2022-09-18T04:35:07.458Z,98363.00
2022-09-18T04:37:10.613Z,98363.00
2022-09-18T04:39:17.548Z,98366.56
2022-09-18T04:41:21.856Z,98356.97
2022-09-18T04:43:24.449Z,98363.28
2022-09-18T04:45:29.157Z,98357.81
2022-09-18T04:47:30.909Z,98353.97
2022-09-18T04:49:32.636Z,98359.47
2022-09-18T04:51:35.763Z,98356.72
2022-09-18T04:53:38.116Z,98352.84
2022-09-18T04:55:43.491Z,98355.59
2022-09-18T04:57:45.235Z,98356.44
2022-09-18T04:59:50.258Z,98360.25
2022-09-18T05:01:52.257Z,98357.25
2022-09-18T05:03:55.209Z,98361.91
2022-09-18T05:06:04.325Z,98355.59
2022-09-18T05:08:10.793Z,98361.91
2022-09-18T05:10:12.435Z,98366.31
2022-09-18T05:12:14.712Z,98366.56
2022-09-18T05:14:16.249Z,98366.56
2022-09-18T05:16:23.217Z,98373.97
2022-09-18T05:18:42.122Z,98366.56
2022-09-18T05:20:43.734Z,98367.41
2022-09-18T05:22:47.215Z,98378.38
2022-09-18T05:24:54.784Z,98375.34
2022-09-18T05:26:56.494Z,98374.25
2022-09-18T05:28:58.004Z,98373.94
2022-09-18T05:31:00.686Z,98377.25
2022-09-18T05:33:15.033Z,98370.94
2022-09-18T05:35:18.464Z,98373.38
2022-09-18T05:37:20.135Z,98377.78
2022-09-18T05:39:29.971Z,98371.19
2022-09-18T05:41:34.267Z,98383.50
2022-09-18T05:43:41.257Z,98382.44
2022-09-18T05:45:44.937Z,98382.44
2022-09-18T05:47:59.338Z,98387.63
2022-09-18T05:50:01.726Z,98387.34
2022-09-18T05:52:03.284Z,98385.44
2022-09-18T05:54:06.409Z,98394.47
2022-09-18T05:56:21.440Z,98384.31
2022-09-18T05:58:23.749Z,98385.69
2022-09-18T06:00:28.920Z,98382.09
2022-09-18T06:02:37.722Z,98382.94
2022-09-18T06:04:46.955Z,98385.41
2022-09-18T06:06:51.502Z,98389.78
2022-09-18T06:08:56.424Z,98389.50
2022-09-18T06:11:02.710Z,98397.75
2022-09-18T06:13:12.166Z,98403.78
2022-09-18T06:15:17.918Z,98398.28
2022-09-18T06:17:22.601Z,98391.66
2022-09-18T06:19:26.938Z,98395.53
2022-09-18T06:21:31.321Z,98399.91
2022-09-18T06:23:33.703Z,98390.88
2022-09-18T06:25:40.580Z,98395.25
2022-09-18T06:27:43.752Z,98397.72
2022-09-18T06:29:47.285Z,98388.66
2022-09-18T06:31:59.703Z,98400.16
2022-09-18T06:34:02.436Z,98396.59
2022-09-18T06:36:13.917Z,98391.09
2022-09-18T06:38:33.132Z,98393.59
2022-09-18T06:40:35.523Z,98393.28
2022-09-18T06:43:06.302Z,98399.88
2022-09-18T06:45:19.751Z,98405.09
2022-09-18T06:47:24.797Z,98414.97
2022-09-18T06:49:26.468Z,98405.94
2022-09-18T06:51:31.156Z,98407.28
2022-09-18T06:53:41.800Z,98408.09
2022-09-18T06:55:44.079Z,98417.13
2022-09-18T06:57:56.199Z,98412.47
2022-09-18T06:59:58.038Z,98408.66
2022-09-18T07:02:02.500Z,98405.91
2022-09-18T07:04:24.467Z,98409.44
2022-09-18T07:06:26.761Z,98407.53
2022-09-18T07:08:28.557Z,98405.59
2022-09-18T07:10:38.892Z,98408.06
2022-09-18T07:12:40.570Z,98400.66
2022-09-18T07:14:43.341Z,98409.72
2022-09-18T07:16:46.535Z,98409.72
2022-09-18T07:18:49.044Z,98406.66
2022-09-18T07:20:53.887Z,98412.16
2022-09-18T07:23:06.643Z,98420.13
2022-09-18T07:25:17.431Z,98410.75
2022-09-18T07:27:19.564Z,98413.25
2022-09-18T07:29:23.941Z,98420.38
2022-09-18T07:31:26.835Z,98416.81
2022-09-18T07:33:35.957Z,98423.66
2022-09-18T07:35:38.008Z,98428.88
2022-09-18T07:37:39.961Z,98415.13
2022-09-18T07:39:53.527Z,98420.63
2022-09-18T07:42:17.350Z,98420.34
2022-09-18T07:44:26.245Z,98418.72
2022-09-18T07:46:28.009Z,98416.78
2022-09-18T07:48:35.732Z,98425.56
2022-09-18T07:50:59.140Z,98418.94
2022-09-18T07:53:05.399Z,98420.59
2022-09-18T07:55:11.324Z,98431.28
2022-09-18T07:57:13.311Z,98425.53
2022-09-18T07:59:29.687Z,98418.13
2022-09-18T08:01:35.787Z,98422.47
2022-09-18T08:03:41.585Z,98424.13
2022-09-18T08:05:46.197Z,98424.66
2022-09-18T08:07:47.918Z,98430.97
2022-09-18T08:10:11.217Z,98429.06
2022-09-18T08:12:25.489Z,98432.59
2022-09-18T08:14:41.489Z,98432.34
2022-09-18T08:16:55.785Z,98434.78
2022-09-18T08:19:17.902Z,98432.88
2022-09-18T08:21:26.937Z,98430.66
2022-09-18T08:23:31.415Z,98436.97
2022-09-18T08:25:34.246Z,98435.59
2022-09-18T08:27:37.065Z,98421.56
2022-09-18T08:29:38.912Z,98431.44
2022-09-18T08:31:43.872Z,98426.47
2022-09-18T08:33:45.956Z,98428.13
2022-09-18T08:35:51.221Z,98428.66
2022-09-18T08:38:05.350Z,98425.66
2022-09-18T08:40:41.189Z,98425.66
2022-09-18T08:43:15.276Z,98422.63
2022-09-18T08:46:10.887Z,98419.88
2022-09-18T08:48:19.646Z,98415.44
2022-09-18T08:50:38.926Z,98409.69
2022-09-18T08:52:48.943Z,98416.53
2022-09-18T08:55:13.106Z,98419.00
2022-09-18T08:57:33.059Z,98416.75
2022-09-18T08:59:44.513Z,98420.06
2022-09-18T09:02:02.526Z,98413.97
2022-09-18T09:04:10.589Z,98423.31
2022-09-18T09:06:37.337Z,98416.94
2022-09-18T09:09:14.975Z,98416.38
2022-09-18T09:11:38.898Z,98410.31
2022-09-18T09:14:52.826Z,98416.84
2022-09-18T09:17:01.209Z,98412.97
2022-09-18T09:19:26.754Z,98407.41
2022-09-18T09:21:46.526Z,98410.13
2022-09-18T09:24:17.456Z,98409.25
2022-09-18T09:26:40.809Z,98415.53
2022-09-18T09:29:03.472Z,98416.56
2022-09-18T09:31:37.397Z,98411.53
2022-09-18T09:34:04.063Z,98408.47
2022-09-18T09:36:37.078Z,98402.84
2022-09-18T09:38:59.857Z,98412.91
2022-09-18T09:41:28.452Z,98411.19
2022-09-18T09:43:57.371Z,98410.22
2022-09-18T09:46:12.057Z,98401.84
2022-09-18T09:48:32.493Z,98397.66
2022-09-18T09:50:38.397Z,98394.75
2022-09-18T09:52:42.613Z,98387.78
2022-09-18T09:54:48.106Z,98390.16
2022-09-18T09:57:15.094Z,98383.16
2022-09-18T09:59:31.499Z,98391.56
2022-09-18T10:02:32.136Z,98392.00
2022-09-18T10:04:47.812Z,98397.66
2022-09-18T10:07:31.801Z,98398.41
2022-09-18T10:09:56.677Z,98397.81
2022-09-18T10:12:37.812Z,98393.06
2022-09-18T10:14:45.555Z,98398.19
2022-09-18T10:16:51.928Z,98394.75
2022-09-18T10:18:53.885Z,98405.09
2022-09-18T10:21:35.080Z,98400.31
2022-09-18T10:23:41.363Z,98392.16
2022-09-18T10:25:57.064Z,98400.34
2022-09-18T10:27:59.071Z,98401.91
2022-09-18T10:30:06.802Z,98402.63
2022-09-18T10:32:35.909Z,98406.13
2022-09-18T10:34:49.588Z,98399.38
2022-09-18T10:36:54.944Z,98391.50
2022-09-18T10:38:59.329Z,98385.28
2022-09-18T10:41:18.974Z,98390.44
2022-09-18T10:43:20.755Z,98386.16
2022-09-18T10:45:30.924Z,98390.44
2022-09-18T10:47:49.017Z,98400.56
2022-09-18T10:49:58.375Z,98384.22
2022-09-18T10:52:21.213Z,98396.91
2022-09-18T10:54:24.195Z,98401.00
2022-09-18T10:56:38.072Z,98389.94
2022-09-18T10:58:39.754Z,98393.50
2022-09-18T11:01:03.947Z,98381.44
2022-09-18T11:03:37.751Z,98386.66
2022-09-18T11:05:50.388Z,98385.31
2022-09-18T11:07:54.875Z,98386.97
2022-09-18T11:09:56.375Z,98385.84
2022-09-18T11:11:58.181Z,98383.38
2022-09-18T11:14:16.089Z,98375.44
2022-09-18T11:16:35.326Z,98377.69
2022-09-18T11:18:37.668Z,98381.56
2022-09-18T11:20:44.826Z,98382.97
2022-09-18T11:22:51.468Z,98370.63
2022-09-18T11:25:27.955Z,98377.03
2022-09-18T11:27:46.266Z,98381.50
2022-09-18T11:29:48.939Z,98376.09
2022-09-18T11:32:10.579Z,98370.88
2022-09-18T11:34:21.963Z,98367.13
2022-09-18T11:36:30.334Z,98360.28
2022-09-18T11:38:40.197Z,98359.22
2022-09-18T11:40:45.458Z,98360.66
2022-09-18T11:42:52.355Z,98360.16
2022-09-18T11:45:06.233Z,98365.66
2022-09-18T11:47:21.326Z,98367.09
2022-09-18T11:49:28.067Z,98367.41
2022-09-18T11:51:55.799Z,98365.25
2022-09-18T11:54:07.637Z,98357.59
2022-09-18T11:56:24.606Z,98351.03
2022-09-18T11:58:38.130Z,98356.34
2022-09-18T12:00:51.477Z,98353.09
2022-09-18T12:03:06.147Z,98348.16
2022-09-18T12:05:30.667Z,98348.44
2022-09-18T12:07:49.291Z,98341.31
2022-09-18T12:10:01.090Z,98355.09
2022-09-18T12:12:12.218Z,98342.44
2022-09-18T12:14:32.200Z,98337.72
2022-09-18T12:17:00.738Z,98338.06
2022-09-18T12:19:13.824Z,98333.66
2022-09-18T12:21:22.796Z,98323.72
2022-09-18T12:23:26.489Z,98320.97
2022-09-18T12:25:48.305Z,98318.22
2022-09-18T12:28:36.850Z,98311.34
2022-09-18T12:31:04.033Z,98307.81
2022-09-18T12:33:41.749Z,98314.44
2022-09-18T12:36:02.519Z,98304.50
2022-09-18T12:38:16.002Z,98306.75
2022-09-18T12:40:27.539Z,98310.34
2022-09-18T12:42:43.959Z,98301.06
2022-09-18T12:45:15.986Z,98296.16
2022-09-18T12:47:32.719Z,98304.69
2022-09-18T12:49:44.568Z,98299.28
2022-09-18T12:51:53.101Z,98302.03
2022-09-18T12:54:16.948Z,98292.75
2022-09-18T12:56:52.891Z,98304.38
2022-09-18T12:59:07.511Z,98290.69
2022-09-18T13:01:24.678Z,98300.09
2022-09-18T13:03:34.659Z,98291.28
2022-09-18T13:05:43.983Z,98290.50
2022-09-18T13:08:26.568Z,98286.09
2022-09-18T13:10:39.196Z,98287.47
2022-09-18T13:12:51.633Z,98291.91
2022-09-18T13:15:00.221Z,98282.81
2022-09-18T13:17:15.884Z,98288.34
2022-09-18T13:19:34.180Z,98285.03
2022-09-18T13:21:41.791Z,98289.72
2022-09-18T13:23:45.384Z,98290.84
2022-09-18T13:25:49.441Z,98291.66
2022-09-18T13:27:55.694Z,98292.47
2022-09-18T13:29:59.439Z,98280.94
2022-09-18T13:32:01.249Z,98282.88
2022-09-18T13:34:15.216Z,98278.97
2022-09-18T13:36:30.777Z,98277.38
2022-09-18T13:38:37.131Z,98274.81
2022-09-18T13:40:48.303Z,98277.31
2022-09-18T13:42:49.981Z,98272.31
2022-09-18T13:44:51.901Z,98277.22
2022-09-18T13:46:58.629Z,98279.66
2022-09-18T13:49:17.665Z,98265.88
2022-09-18T13:51:32.319Z,98265.59
2022-09-18T13:53:38.359Z,98270.78
2022-09-18T13:55:50.563Z,98272.72
2022-09-18T13:58:12.457Z,98268.03
2022-09-18T14:00:20.621Z,98268.34
2022-09-18T14:02:33.068Z,98263.63
2022-09-18T14:04:40.582Z,98277.72
2022-09-18T14:06:43.845Z,98263.13
2022-09-18T14:08:45.644Z,98269.78
2022-09-18T14:11:05.076Z,98268.63
2022-09-18T14:13:35.798Z,98272.00
2022-09-18T14:15:37.586Z,98260.19
2022-09-18T14:17:43.303Z,98263.72
2022-09-18T14:19:46.032Z,98259.34
2022-09-18T14:21:49.781Z,98262.94
2022-09-18T14:24:03.055Z,98263.22
2022-09-18T14:26:40.029Z,98251.66
2022-09-18T14:28:47.373Z,98262.66
2022-09-18T14:31:27.890Z,98261.66
2022-09-18T14:33:31.639Z,98264.69
2022-09-18T14:35:54.545Z,98264.50
2022-09-18T14:37:56.231Z,98271.13
2022-09-18T14:39:58.802Z,98263.97
2022-09-18T14:42:12.344Z,98272.53
2022-09-18T14:44:17.807Z,98272.84
2022-09-18T14:46:21.727Z,98274.28
2022-09-18T14:48:29.959Z,98274.56
2022-09-18T14:50:37.683Z,98277.72
2022-09-18T14:52:43.628Z,98275.56
2022-09-18T14:54:47.560Z,98274.22
2022-09-18T14:56:51.522Z,98280.03
2022-09-18T14:58:53.281Z,98280.94
2022-09-18T15:00:55.956Z,98282.34
2022-09-18T15:03:01.895Z,98279.06
2022-09-18T15:05:11.197Z,98276.13
2022-09-18T15:07:21.234Z,98272.03
2022-09-18T15:09:32.556Z,98278.66
2022-09-18T15:11:46.932Z,98275.66
2022-09-18T15:13:56.603Z,98277.91
2022-09-18T15:16:05.513Z,98273.00
2022-09-18T15:18:41.477Z,98268.38
2022-09-18T15:20:51.419Z,98264.28
2022-09-18T15:22:53.674Z,98258.28
2022-09-18T15:24:58.684Z,98260.19
2022-09-18T15:27:04.356Z,98266.03
2022-09-18T15:29:19.222Z,98266.59
2022-09-18T15:31:23.721Z,98262.22
2022-09-18T15:33:27.459Z,98269.13
2022-09-18T15:35:36.546Z,98262.81
2022-09-18T15:37:51.961Z,98257.09
2022-09-18T15:40:24.599Z,98266.75
2022-09-18T15:42:35.543Z,98267.03
2022-09-18T15:44:40.275Z,98259.41
2022-09-18T15:46:44.964Z,98269.06
2022-09-18T15:48:50.919Z,98269.88
2022-09-18T15:51:26.545Z,98269.66
2022-09-18T15:53:29.245Z,98262.50
2022-09-18T15:55:33.646Z,98260.34
2022-09-18T15:57:37.107Z,98261.47
2022-09-18T15:59:42.572Z,98262.59
2022-09-18T16:01:48.469Z,98254.09
2022-09-18T16:03:59.407Z,98251.63
2022-09-18T16:06:05.082Z,98248.03
2022-09-18T16:08:29.685Z,98259.94
2022-09-18T16:10:34.616Z,98263.81
2022-09-18T16:12:39.877Z,98253.91
2022-09-18T16:14:47.089Z,98254.22
2022-09-18T16:16:48.468Z,98257.25
2022-09-18T16:19:10.252Z,98246.84
2022-09-18T16:21:12.402Z,98243.88
2022-09-18T16:23:19.973Z,98248.56
2022-09-18T16:25:27.448Z,98254.38
2022-09-18T16:27:29.357Z,98240.06
2022-09-18T16:29:40.523Z,98238.44
2022-09-18T16:31:44.763Z,98238.72
2022-09-18T16:34:01.645Z,98242.09
2022-09-18T16:36:11.432Z,98239.94
2022-09-18T16:38:15.083Z,98248.44
2022-09-18T16:40:20.843Z,98236.66
2022-09-18T16:42:24.782Z,98235.31
2022-09-18T16:47:07.919Z,98234.56
2022-09-18T16:49:14.736Z,98235.66
2022-09-18T16:51:19.047Z,98241.47
2022-09-18T16:53:23.329Z,98233.50
2022-09-18T16:55:25.558Z,98241.22
2022-09-18T16:57:29.296Z,98241.53
2022-09-18T16:59:32.717Z,98240.19
2022-09-18T17:01:54.198Z,98245.16
2022-09-18T17:04:00.298Z,98240.75
2022-09-18T17:06:02.601Z,98241.88
2022-09-18T17:08:05.437Z,98241.34
2022-09-18T17:10:09.577Z,98234.22
2022-09-18T17:12:11.251Z,98232.56
2022-09-18T17:14:18.692Z,98226.56
2022-09-18T17:16:41.306Z,98221.66
2022-09-18T17:18:46.757Z,98220.00
2022-09-18T17:20:49.182Z,98224.97
2022-09-18T17:22:51.459Z,98229.38
2022-09-18T17:24:53.124Z,98228.53
2022-09-18T17:26:54.888Z,98226.91
2022-09-18T17:28:59.356Z,98219.25
2022-09-18T17:31:09.208Z,98218.72
2022-09-18T17:33:11.198Z,98223.41
2022-09-18T17:35:13.452Z,98236.34
2022-09-18T17:37:15.351Z,98220.13
2022-09-18T17:39:17.163Z,98227.84
2022-09-18T17:41:19.666Z,98220.41
2022-09-18T17:43:21.276Z,98235.25
2022-09-18T17:45:26.159Z,98233.66
2022-09-18T17:47:27.810Z,98232.00
2022-09-18T17:49:33.006Z,98234.75
2022-09-18T17:51:34.650Z,98237.78
2022-09-18T17:53:36.265Z,98227.38
2022-09-18T17:55:38.007Z,98232.88
2022-09-18T17:57:39.774Z,98222.97
2022-09-18T17:59:43.834Z,98235.09
2022-09-18T18:01:47.219Z,98231.00
2022-09-18T18:03:48.906Z,98233.22
2022-09-18T18:05:57.889Z,98236.25
2022-09-18T18:07:59.498Z,98239.31
2022-09-18T18:10:01.584Z,98240.41
2022-09-18T18:12:11.793Z,98233.28
2022-09-18T18:14:13.495Z,98242.09
2022-09-18T18:16:24.825Z,98253.91
2022-09-18T18:18:27.274Z,98249.81
2022-09-18T18:20:31.139Z,98256.13
2022-09-18T18:22:32.908Z,98253.38
2022-09-18T18:24:34.503Z,98251.75
2022-09-18T18:26:38.058Z,98257.25
2022-09-18T18:28:40.993Z,98252.31
2022-09-18T18:30:46.216Z,98247.66
2022-09-18T18:32:53.038Z,98251.81
2022-09-18T18:34:55.464Z,98246.84
2022-09-18T18:36:57.522Z,98234.22
2022-09-18T18:39:11.935Z,98255.66
2022-09-18T18:41:15.055Z,98243.03
2022-09-18T18:43:16.849Z,98250.47
2022-09-18T18:45:18.712Z,98242.81
2022-09-18T18:47:20.581Z,98240.06
2022-09-18T18:49:24.099Z,98241.97
2022-09-18T18:51:26.747Z,98237.59
2022-09-18T18:53:31.699Z,98228.81
2022-09-18T18:55:48.471Z,98229.13
2022-09-18T18:57:50.367Z,98226.66
2022-09-18T18:59:52.088Z,98237.09
2022-09-18T19:01:57.733Z,98232.19
2022-09-18T19:04:08.694Z,98236.06
2022-09-18T19:06:14.162Z,98236.31
2022-09-18T19:08:16.428Z,98236.31
2022-09-18T19:10:21.510Z,98242.94
2022-09-18T19:12:26.952Z,98235.81
2022-09-18T19:14:31.740Z,98234.97
2022-09-18T19:16:33.612Z,98245.16
2022-09-18T19:18:36.293Z,98243.50
2022-09-18T19:20:38.118Z,98244.63
2022-09-18T19:22:39.809Z,98244.91
2022-09-18T19:24:41.876Z,98246.56
2022-09-18T19:26:47.983Z,98247.34
2022-09-18T19:29:05.865Z,98255.06
2022-09-18T19:31:17.604Z,98266.34
2022-09-18T19:33:21.087Z,98274.06
2022-09-18T19:35:23.097Z,98286.13
2022-09-18T19:37:24.735Z,98287.78
2022-09-18T19:39:27.125Z,98275.16
2022-09-18T19:41:53.289Z,98270.22
2022-09-18T19:43:58.182Z,98276.28
2022-09-18T19:46:01.017Z,98280.44
2022-09-18T19:48:05.090Z,98283.75
2022-09-18T19:50:16.738Z,98289.00
2022-09-18T19:52:28.627Z,98285.19
2022-09-18T19:54:31.144Z,98292.88
2022-09-18T19:56:42.932Z,98283.59
2022-09-18T19:58:52.586Z,98285.25
2022-09-18T20:00:54.372Z,98282.25
2022-09-18T20:03:00.028Z,98281.72
2022-09-18T20:05:02.093Z,98289.69
2022-09-18T20:07:03.986Z,98289.16
2022-09-18T20:09:11.126Z,98285.59
2022-09-18T20:11:12.994Z,98292.47
2022-09-18T20:13:16.563Z,98290.28
2022-09-18T20:15:18.386Z,98298.00
2022-09-18T20:17:21.943Z,98297.47
2022-09-18T20:19:35.820Z,98287.03
2022-09-18T20:21:45.316Z,98292.31
2022-09-18T20:23:51.091Z,98291.75
2022-09-18T20:25:58.691Z,98284.91
2022-09-18T20:28:02.273Z,98289.59
2022-09-18T20:30:08.791Z,98291.75
2022-09-18T20:32:17.658Z,98283.84
2022-09-18T20:34:22.472Z,98283.31
2022-09-18T20:36:26.360Z,98288.25
2022-09-18T20:38:32.418Z,98283.31
2022-09-18T20:40:34.421Z,98280.84
2022-09-18T20:42:38.922Z,98280.06
2022-09-18T20:44:40.520Z,98276.75
2022-09-18T20:46:43.020Z,98276.75
2022-09-18T20:48:46.309Z,98275.94
2022-09-18T20:50:49.286Z,98279.22
2022-09-18T20:52:50.863Z,98275.66
2022-09-18T20:54:53.015Z,98277.03
2022-09-18T20:56:57.748Z,98281.69
2022-09-18T20:59:04.800Z,98273.75
2022-09-18T21:01:20.430Z,98285.00
2022-09-18T21:03:22.602Z,98280.09
2022-09-18T21:05:24.422Z,98290.25
2022-09-18T21:07:26.255Z,98301.47
2022-09-18T21:09:29.078Z,98294.06
2022-09-18T21:11:38.025Z,98297.34
2022-09-18T21:13:43.701Z,98300.94
2022-09-18T21:15:48.818Z,98303.97
2022-09-18T21:17:51.337Z,98300.66
2022-09-18T21:19:52.958Z,98300.66
2022-09-18T21:21:54.825Z,98293.81
2022-09-18T21:23:58.618Z,98298.50
2022-09-18T21:26:00.266Z,98295.19
2022-09-18T21:28:05.912Z,98290.00
2022-09-18T21:30:11.187Z,98288.34
2022-09-18T21:32:12.869Z,98289.47
2022-09-18T21:34:23.516Z,98288.66
2022-09-18T21:36:27.749Z,98283.47
2022-09-18T21:38:29.815Z,98280.97
2022-09-18T21:40:31.893Z,98278.78
2022-09-18T21:42:34.240Z,98266.22
2022-09-18T21:44:39.687Z,98270.31
2022-09-18T21:46:42.931Z,98272.25
2022-09-18T21:48:48.471Z,98271.69
2022-09-18T21:50:50.289Z,98271.97
2022-09-18T21:52:51.849Z,98284.31
2022-09-18T21:54:53.530Z,98294.47
2022-09-18T21:56:58.640Z,98272.28
2022-09-18T21:59:00.458Z,98270.34
2022-09-18T22:01:15.760Z,98260.50
2022-09-18T22:03:17.427Z,98273.34
2022-09-18T22:05:19.322Z,98270.91
2022-09-18T22:07:21.446Z,98249.28
2022-09-18T22:09:25.878Z,98241.31
2022-09-18T22:11:30.405Z,98238.88
2022-09-18T22:13:35.098Z,98256.69
2022-09-18T22:15:36.744Z,98263.25
2022-09-18T22:17:39.176Z,98273.69
2022-09-18T22:21:57.266Z,98249.31
2022-09-18T22:24:08.868Z,98269.88
2022-09-18T22:26:10.527Z,98269.03
2022-09-18T22:28:14.093Z,98265.47
2022-09-18T22:30:15.815Z,98277.81
2022-09-18T22:32:17.347Z,98279.72
2022-09-18T22:34:23.184Z,98287.41
2022-09-18T22:36:25.465Z,98290.69
2022-09-18T22:38:27.034Z,98285.50
2022-09-18T22:40:29.199Z,98293.97
2022-09-18T22:42:30.878Z,98293.97
2022-09-18T22:44:32.420Z,98280.84
2022-09-18T22:46:36.930Z,98281.94
2022-09-18T22:48:38.810Z,98287.72
2022-09-18T22:50:40.483Z,98270.44
2022-09-18T22:52:45.155Z,98278.13
2022-09-18T22:54:49.312Z,98281.41
2022-09-18T22:56:54.014Z,98291.00
2022-09-18T22:58:56.962Z,98283.88
2022-09-18T23:01:13.608Z,98294.56
2022-09-18T23:03:15.142Z,98303.03
2022-09-18T23:05:17.555Z,98298.09
2022-09-18T23:07:19.375Z,98296.72
2022-09-18T23:09:24.901Z,98292.38
2022-09-18T23:11:32.208Z,98289.09
2022-09-18T23:13:35.256Z,98284.16
2022-09-18T23:15:39.298Z,98289.09
2022-09-18T23:17:44.197Z,98295.13
2022-09-18T23:19:48.214Z,98290.72
2022-09-18T23:21:50.706Z,98301.41
2022-09-18T23:23:54.112Z,98304.41
2022-09-18T23:25:56.222Z,98300.31
2022-09-18T23:27:58.158Z,98310.72
2022-09-18T23:30:03.551Z,98302.75
2022-09-18T23:32:05.539Z,98307.94
2022-09-18T23:34:13.635Z,98308.22
2022-09-18T23:36:19.265Z,98312.88
2022-09-18T23:38:20.907Z,98311.75
2022-09-18T23:40:22.685Z,98320.25
2022-09-18T23:42:25.265Z,98314.22
2022-09-18T23:44:31.349Z,98313.69
2022-09-18T23:46:35.999Z,98319.69
2022-09-18T23:48:38.006Z,98309.28
2022-09-18T23:50:42.287Z,98316.66
2022-09-18T23:52:43.965Z,98310.66
2022-09-18T23:54:47.939Z,98315.28
2022-09-18T23:56:50.157Z,98312.84
2022-09-18T23:58:59.040Z,98305.72
